createdAt,value
2022-09-06T00:00:44.413Z,100035.17
2022-09-06T00:01:46.871Z,100028.86
2022-09-06T00:02:49.675Z,100029.67
2022-09-06T00:03:52.646Z,100026.00
2022-09-06T00:04:55.280Z,100032.09
2022-09-06T00:05:57.950Z,100028.28
2022-09-06T00:07:01.436Z,100027.20
2022-09-06T00:08:04.006Z,100033.29
2022-09-06T00:09:06.570Z,100027.80
2022-09-06T00:10:09.558Z,100028.50
2022-09-06T00:11:12.159Z,100028.29
2022-09-06T00:12:14.788Z,100022.89
2022-09-06T00:13:17.347Z,100032.35
2022-09-06T00:14:19.915Z,100020.02
2022-09-06T00:15:22.497Z,100019.92
2022-09-06T00:16:30.354Z,100026.72
2022-09-06T00:17:32.374Z,100020.66
2022-09-06T00:18:35.242Z,100023.87
2022-09-06T00:19:37.927Z,100023.63
2022-09-06T00:20:40.753Z,100022.79
2022-09-06T00:21:43.786Z,100019.22
2022-09-06T00:22:46.494Z,100025.42
2022-09-06T00:23:50.707Z,100023.49
2022-09-06T00:24:53.395Z,100018.23
2022-09-06T00:25:56.043Z,100019.22
2022-09-06T00:26:59.023Z,100020.16
2022-09-06T00:28:01.689Z,100021.11
2022-09-06T00:29:05.615Z,100015.75
2022-09-06T00:30:09.969Z,100013.23
2022-09-06T00:31:13.670Z,100011.55
2022-09-06T00:32:16.823Z,100018.73
2022-09-06T00:33:19.439Z,100011.44
2022-09-06T00:34:22.059Z,100014.42
2022-09-06T00:35:29.615Z,100027.80
2022-09-06T00:36:33.595Z,100016.70
2022-09-06T00:37:36.247Z,100021.25
2022-09-06T00:38:38.927Z,100019.67
2022-09-06T00:39:50.548Z,100026.01
2022-09-06T00:40:53.475Z,100023.48
2022-09-06T00:42:00.688Z,100021.94
2022-09-06T00:43:04.264Z,100017.77
2022-09-06T00:44:07.221Z,100013.70
2022-09-06T00:45:10.297Z,100019.17
2022-09-06T00:46:14.364Z,100019.41
2022-09-06T00:47:17.026Z,100017.13
2022-09-06T00:48:22.571Z,100020.00
2022-09-06T00:49:25.487Z,100021.08
2022-09-06T00:50:28.493Z,100017.01
2022-09-06T00:51:31.757Z,100017.25
2022-09-06T00:52:34.272Z,100021.76
2022-09-06T00:53:37.297Z,100019.38
2022-09-06T00:54:40.155Z,100013.42
2022-09-06T00:55:42.725Z,100012.58
2022-09-06T00:56:45.709Z,100020.79
2022-09-06T00:57:48.371Z,100014.80
2022-09-06T00:58:50.937Z,100014.09
2022-09-06T00:59:53.439Z,100011.47
2022-09-06T01:00:56.276Z,100015.88
2022-09-06T01:01:59.178Z,100013.86
2022-09-06T01:03:02.026Z,100017.66
2022-09-06T01:04:05.414Z,100012.66
2022-09-06T01:05:08.383Z,100011.20
2022-09-06T01:06:13.825Z,100006.91
2022-09-06T01:07:16.594Z,100011.45
2022-09-06T01:08:19.258Z,100009.77
2022-09-06T01:09:21.925Z,100013.33
2022-09-06T01:10:25.725Z,100007.27
2022-09-06T01:11:29.621Z,100010.70
2022-09-06T01:12:32.860Z,100019.41
2022-09-06T01:13:35.879Z,100014.41
2022-09-06T01:14:38.764Z,100016.19
2022-09-06T01:15:41.453Z,100009.29
2022-09-06T01:16:44.405Z,100009.39
2022-09-06T01:17:46.971Z,100013.09
2022-09-06T01:18:49.555Z,100013.30
2022-09-06T01:19:52.104Z,100011.41
2022-09-06T01:20:55.111Z,100016.98
2022-09-06T01:21:58.012Z,100010.20
2022-09-06T01:23:00.722Z,100017.33
2022-09-06T01:24:03.291Z,100014.83
2022-09-06T01:25:05.884Z,100014.09
2022-09-06T01:26:09.348Z,100014.22
2022-09-06T01:27:11.912Z,100008.23
2022-09-06T01:28:14.584Z,100009.31
2022-09-06T01:29:17.255Z,100012.97
2022-09-06T01:30:20.026Z,100008.57
2022-09-06T01:31:22.925Z,100008.70
2022-09-06T01:32:25.777Z,100011.42
2022-09-06T01:33:28.445Z,100007.25
2022-09-06T01:34:31.032Z,100006.41
2022-09-06T01:35:33.575Z,100007.48
2022-09-06T01:36:45.758Z,100002.44
2022-09-06T01:37:40.967Z,100008.75
2022-09-06T01:38:43.732Z,100003.73
2022-09-06T01:39:46.269Z,100003.00
2022-09-06T01:40:49.902Z,100002.38
2022-09-06T01:41:52.665Z,100008.59
2022-09-06T01:42:55.740Z,100002.38
2022-09-06T01:43:58.314Z,100001.67
2022-09-06T01:45:01.033Z,100001.06
2022-09-06T01:46:04.143Z,99996.86
2022-09-06T01:47:07.028Z,99997.83
2022-09-06T01:48:09.656Z,99996.24
2022-09-06T01:49:12.775Z,99992.91
2022-09-06T01:50:17.152Z,99996.60
2022-09-06T01:51:19.756Z,100006.34
2022-09-06T01:52:22.324Z,100000.26
2022-09-06T01:53:24.988Z,99999.41
2022-09-06T01:54:27.519Z,100002.16
2022-09-06T01:55:30.131Z,99998.58
2022-09-06T01:56:33.162Z,100003.01
2022-09-06T01:57:35.768Z,100002.16
2022-09-06T01:58:38.444Z,100004.88
2022-09-06T01:59:40.968Z,99997.02
2022-09-06T02:00:43.884Z,100001.42
2022-09-06T02:01:46.612Z,99999.64
2022-09-06T02:02:49.568Z,100004.88
2022-09-06T02:03:52.192Z,99997.86
2022-09-06T02:04:54.819Z,99998.70
2022-09-06T02:05:57.328Z,100002.87
2022-09-06T02:07:00.202Z,100006.44
2022-09-06T02:08:02.776Z,99998.48
2022-09-06T02:09:05.436Z,100001.84
2022-09-06T02:10:08.655Z,100009.06
2022-09-06T02:11:11.287Z,100006.44
2022-09-06T02:12:13.856Z,100000.39
2022-09-06T02:13:16.419Z,100009.70
2022-09-06T02:14:19.092Z,100005.41
2022-09-06T02:15:21.759Z,100007.80
2022-09-06T02:16:24.882Z,100006.11
2022-09-06T02:17:27.508Z,100012.20
2022-09-06T02:18:30.079Z,100006.11
2022-09-06T02:19:32.645Z,100006.24
2022-09-06T02:20:35.623Z,100013.98
2022-09-06T02:21:39.378Z,100011.58
2022-09-06T02:22:42.392Z,100017.57
2022-09-06T02:23:45.467Z,100015.88
2022-09-06T02:24:48.139Z,100019.97
2022-09-06T02:25:50.722Z,100014.72
2022-09-06T02:26:53.683Z,100012.09
2022-09-06T02:27:56.665Z,100019.22
2022-09-06T02:28:59.327Z,100018.18
2022-09-06T02:30:01.899Z,100014.72
2022-09-06T02:31:04.612Z,100014.72
2022-09-06T02:32:07.352Z,100017.34
2022-09-06T02:33:09.866Z,100020.90
2022-09-06T02:34:13.745Z,100014.59
2022-09-06T02:35:16.374Z,100018.05
2022-09-06T02:36:19.550Z,100013.42
2022-09-06T02:37:22.177Z,100019.64
2022-09-06T02:38:24.835Z,100017.21
2022-09-06T02:39:27.396Z,100015.75
2022-09-06T02:40:30.590Z,100019.22
2022-09-06T02:41:33.210Z,100010.52
2022-09-06T02:42:35.798Z,100014.95
2022-09-06T02:43:39.059Z,100010.42
2022-09-06T02:44:41.734Z,100010.19
2022-09-06T02:45:45.600Z,100012.81
2022-09-06T02:46:48.406Z,100015.05
2022-09-06T02:47:51.090Z,100020.52
2022-09-06T02:48:53.731Z,100016.92
2022-09-06T02:49:56.396Z,100021.36
2022-09-06T02:50:59.372Z,100020.52
2022-09-06T02:52:02.040Z,100016.30
2022-09-06T02:53:05.741Z,100019.99
2022-09-06T02:54:08.417Z,100024.52
2022-09-06T02:55:11.085Z,100023.68
2022-09-06T02:56:14.560Z,100023.77
2022-09-06T02:57:17.127Z,100029.02
2022-09-06T02:58:19.911Z,100020.09
2022-09-06T02:59:22.619Z,100025.69
2022-09-06T03:00:25.758Z,100037.00
2022-09-06T03:01:28.438Z,100032.48
2022-09-06T03:02:31.159Z,100032.58
2022-09-06T03:03:33.868Z,100032.70
2022-09-06T03:04:36.432Z,100029.34
2022-09-06T03:05:38.992Z,100035.55
2022-09-06T03:06:42.175Z,100033.86
2022-09-06T03:07:45.065Z,100042.66
2022-09-06T03:08:47.616Z,100036.58
2022-09-06T03:09:50.488Z,100036.58
2022-09-06T03:10:53.506Z,100037.64
2022-09-06T03:11:56.170Z,100040.98
2022-09-06T03:12:59.117Z,100040.27
2022-09-06T03:14:01.779Z,100040.36
2022-09-06T03:15:04.347Z,100042.14
2022-09-06T03:16:07.457Z,100040.45
2022-09-06T03:17:10.118Z,100044.66
2022-09-06T03:18:12.683Z,100047.28
2022-09-06T03:19:15.341Z,100046.44
2022-09-06T03:20:19.843Z,100048.22
2022-09-06T03:21:22.931Z,100048.31
2022-09-06T03:22:26.519Z,100051.77
2022-09-06T03:23:30.211Z,100051.77
2022-09-06T03:24:32.879Z,100060.48
2022-09-06T03:25:35.442Z,100058.80
2022-09-06T03:26:38.421Z,100055.42
2022-09-06T03:27:41.089Z,100063.19
2022-09-06T03:28:43.763Z,100056.92
2022-09-06T03:29:46.327Z,100060.38
2022-09-06T03:30:49.798Z,100060.06
2022-09-06T03:31:52.686Z,100064.47
2022-09-06T03:32:55.218Z,100062.37
2022-09-06T03:33:57.921Z,100062.98
2022-09-06T03:35:00.591Z,100065.06
2022-09-06T03:36:03.366Z,100066.08
2022-09-06T03:37:05.973Z,100067.61
2022-09-06T03:38:08.559Z,100053.61
2022-09-06T03:39:11.427Z,100062.61
2022-09-06T03:40:14.959Z,100065.52
2022-09-06T03:41:17.692Z,100062.76
2022-09-06T03:42:20.902Z,100062.05
2022-09-06T03:43:23.486Z,100061.92
2022-09-06T03:44:26.004Z,100066.32
2022-09-06T03:45:28.616Z,100067.16
2022-09-06T03:46:31.550Z,100064.44
2022-09-06T03:47:34.156Z,100066.94
2022-09-06T03:48:36.678Z,100063.38
2022-09-06T03:49:39.605Z,100064.95
2022-09-06T03:50:42.577Z,100060.92
2022-09-06T03:51:45.158Z,100060.69
2022-09-06T03:52:47.814Z,100065.70
2022-09-06T03:53:50.400Z,100061.91
2022-09-06T03:56:18.055Z,100065.88
2022-09-06T03:58:48.950Z,100061.71
2022-09-06T03:59:51.579Z,100055.18
2022-09-06T04:00:54.560Z,100061.14
2022-09-06T04:01:57.258Z,100057.47
2022-09-06T04:03:01.908Z,100061.16
2022-09-06T04:04:04.394Z,100052.70
2022-09-06T04:05:07.041Z,100062.16
2022-09-06T04:06:10.952Z,100062.52
2022-09-06T04:07:13.919Z,100053.46
2022-09-06T04:08:16.757Z,100059.42
2022-09-06T04:09:19.477Z,100061.59
2022-09-06T04:10:23.186Z,100063.14
2022-09-06T04:11:25.877Z,100059.22
2022-09-06T04:12:28.619Z,100063.50
2022-09-06T04:13:31.455Z,100066.52
2022-09-06T04:14:34.235Z,100063.29
2022-09-06T04:15:36.911Z,100061.13
2022-09-06T04:16:39.936Z,100056.46
2022-09-06T04:17:42.798Z,100068.66
2022-09-06T04:18:45.441Z,100060.41
2022-09-06T04:19:48.133Z,100061.61
2022-09-06T04:20:51.294Z,100062.20
2022-09-06T04:21:54.679Z,100061.48
2022-09-06T04:22:57.654Z,100068.28
2022-09-06T04:24:00.332Z,100059.31
2022-09-06T04:25:02.995Z,100068.52
2022-09-06T04:26:05.974Z,100066.96
2022-09-06T04:27:08.745Z,100060.98
2022-09-06T04:28:11.342Z,100066.83
2022-09-06T04:29:13.973Z,100064.67
2022-09-06T04:30:18.490Z,100070.16
2022-09-06T04:31:21.201Z,100067.61
2022-09-06T04:32:24.344Z,100065.19
2022-09-06T04:33:27.028Z,100072.86
2022-09-06T04:34:29.781Z,100068.03
2022-09-06T04:35:32.511Z,100074.14
2022-09-06T04:36:35.427Z,100067.66
2022-09-06T04:37:38.094Z,100067.30
2022-09-06T04:38:41.289Z,100064.88
2022-09-06T04:39:43.989Z,100064.09
2022-09-06T04:40:46.919Z,100067.07
2022-09-06T04:41:49.489Z,100070.72
2022-09-06T04:42:52.466Z,100067.33
2022-09-06T04:43:55.136Z,100070.58
2022-09-06T04:44:57.789Z,100070.20
2022-09-06T04:46:00.519Z,100070.96
2022-09-06T04:47:06.280Z,100074.51
2022-09-06T04:48:07.835Z,100076.16
2022-09-06T04:49:10.925Z,100072.67
2022-09-06T04:50:15.349Z,100074.81
2022-09-06T04:51:17.907Z,100068.96
2022-09-06T04:52:20.580Z,100074.09
2022-09-06T04:53:23.361Z,100068.42
2022-09-06T04:54:26.588Z,100069.00
2022-09-06T04:55:29.266Z,100067.11
2022-09-06T04:56:34.761Z,100069.92
2022-09-06T04:57:42.041Z,100070.09
2022-09-06T04:58:42.349Z,100069.33
2022-09-06T04:59:45.107Z,100070.87
2022-09-06T05:00:50.797Z,100072.70
2022-09-06T05:01:57.493Z,100066.75
2022-09-06T05:03:00.496Z,100063.42
2022-09-06T05:04:03.160Z,100067.75
2022-09-06T05:05:06.240Z,100067.91
2022-09-06T05:06:11.271Z,100065.66
2022-09-06T05:07:14.974Z,100064.84
2022-09-06T05:08:18.654Z,100068.75
2022-09-06T05:09:21.326Z,100058.47
2022-09-06T05:10:24.841Z,100063.03
2022-09-06T05:11:27.464Z,100067.64
2022-09-06T05:12:30.172Z,100063.47
2022-09-06T05:13:33.423Z,100060.13
2022-09-06T05:14:36.093Z,100060.27
2022-09-06T05:15:38.857Z,100063.59
2022-09-06T05:16:41.743Z,100062.49
2022-09-06T05:17:44.412Z,100064.27
2022-09-06T05:18:46.961Z,100061.08
2022-09-06T05:19:49.581Z,100067.47
2022-09-06T05:20:52.306Z,100064.95
2022-09-06T05:21:54.872Z,100060.05
2022-09-06T05:22:58.074Z,100061.14
2022-09-06T05:24:00.590Z,100059.62
2022-09-06T05:25:03.487Z,100059.62
2022-09-06T05:26:08.669Z,100057.22
2022-09-06T05:27:11.282Z,100064.77
2022-09-06T05:28:13.848Z,100057.37
2022-09-06T05:29:16.578Z,100059.59
2022-09-06T05:30:20.722Z,100061.39
2022-09-06T05:31:23.331Z,100061.64
2022-09-06T05:32:26.394Z,100051.30
2022-09-06T05:33:30.182Z,100057.97
2022-09-06T05:34:32.675Z,100054.30
2022-09-06T05:35:36.424Z,100058.08
2022-09-06T05:36:40.542Z,100061.97
2022-09-06T05:37:43.436Z,100064.85
2022-09-06T05:38:46.797Z,100047.83
2022-09-06T05:39:49.536Z,100053.36
2022-09-06T05:40:53.672Z,100051.02
2022-09-06T05:41:56.547Z,100056.17
2022-09-06T05:42:59.524Z,100057.84
2022-09-06T05:44:02.504Z,100054.59
2022-09-06T05:45:05.158Z,100057.64
2022-09-06T05:46:08.236Z,100064.37
2022-09-06T05:47:11.111Z,100059.33
2022-09-06T05:48:13.637Z,100057.22
2022-09-06T05:49:16.452Z,100057.58
2022-09-06T05:50:20.658Z,100058.36
2022-09-06T05:51:23.326Z,100067.50
2022-09-06T05:52:25.952Z,100062.59
2022-09-06T05:53:28.559Z,100054.02
2022-09-06T05:54:31.012Z,100059.12
2022-09-06T05:55:33.796Z,100054.97
2022-09-06T05:56:36.626Z,100062.50
2022-09-06T05:57:39.256Z,100054.67
2022-09-06T05:58:41.907Z,100058.61
2022-09-06T05:59:44.477Z,100062.52
2022-09-06T06:00:47.648Z,100058.80
2022-09-06T06:01:50.402Z,100064.63
2022-09-06T06:02:53.403Z,100062.80
2022-09-06T06:03:56.070Z,100053.54
2022-09-06T06:04:58.643Z,100062.55
2022-09-06T06:06:01.306Z,100064.70
2022-09-06T06:07:03.891Z,100065.75
2022-09-06T06:08:06.962Z,100066.62
2022-09-06T06:09:09.518Z,100065.16
2022-09-06T06:10:12.561Z,100070.49
2022-09-06T06:11:15.191Z,100070.52
2022-09-06T06:12:17.836Z,100068.20
2022-09-06T06:13:20.410Z,100071.03
2022-09-06T06:14:22.969Z,100064.59
2022-09-06T06:15:25.907Z,100068.06
2022-09-06T06:16:29.246Z,100068.25
2022-09-06T06:17:31.903Z,100064.08
2022-09-06T06:18:34.614Z,100067.72
2022-09-06T06:19:37.234Z,100068.41
2022-09-06T06:20:40.215Z,100076.72
2022-09-06T06:21:42.779Z,100071.41
2022-09-06T06:22:45.550Z,100067.41
2022-09-06T06:23:48.120Z,100068.90
2022-09-06T06:24:50.613Z,100071.90
2022-09-06T06:25:53.250Z,100072.55
2022-09-06T06:26:56.227Z,100070.56
2022-09-06T06:27:58.798Z,100073.70
2022-09-06T06:29:01.920Z,100078.19
2022-09-06T06:30:05.197Z,100073.40
2022-09-06T06:31:08.035Z,100070.89
2022-09-06T06:32:10.619Z,100075.72
2022-09-06T06:33:13.484Z,100070.89
2022-09-06T06:34:16.101Z,100074.89
2022-09-06T06:35:18.711Z,100074.22
2022-09-06T06:36:22.720Z,100080.53
2022-09-06T06:37:25.383Z,100074.56
2022-09-06T06:38:28.085Z,100077.22
2022-09-06T06:39:30.855Z,100083.84
2022-09-06T06:40:34.003Z,100095.31
2022-09-06T06:41:36.637Z,100081.52
2022-09-06T06:42:39.243Z,100082.70
2022-09-06T06:43:42.281Z,100084.02
2022-09-06T06:44:44.835Z,100089.19
2022-09-06T06:45:47.430Z,100089.18
2022-09-06T06:46:50.636Z,100092.82
2022-09-06T06:47:53.254Z,100087.00
2022-09-06T06:48:55.884Z,100085.16
2022-09-06T06:49:58.530Z,100086.78
2022-09-06T06:51:01.285Z,100088.08
2022-09-06T06:52:03.879Z,100087.01
2022-09-06T06:53:06.554Z,100085.55
2022-09-06T06:54:09.319Z,100085.23
2022-09-06T06:55:11.979Z,100088.46
2022-09-06T06:56:15.574Z,100088.21
2022-09-06T06:57:18.197Z,100081.38
2022-09-06T06:58:20.847Z,100078.75
2022-09-06T06:59:23.475Z,100077.17
2022-09-06T07:00:28.352Z,100082.70
2022-09-06T07:01:31.525Z,100080.78
2022-09-06T07:02:34.354Z,100079.45
2022-09-06T07:03:37.030Z,100084.14
2022-09-06T07:04:39.548Z,100086.27
2022-09-06T07:07:51.282Z,100084.24
2022-09-06T07:08:53.955Z,100079.62
2022-09-06T07:11:01.442Z,100078.05
2022-09-06T07:12:03.937Z,100076.27
2022-09-06T07:13:06.471Z,100079.53
2022-09-06T07:14:09.143Z,100076.34
2022-09-06T07:15:11.712Z,100078.00
2022-09-06T07:16:15.286Z,100075.03
2022-09-06T07:17:18.169Z,100077.62
2022-09-06T07:18:20.694Z,100081.31
2022-09-06T07:20:28.315Z,100082.45
2022-09-06T07:21:38.851Z,100080.16
2022-09-06T07:22:35.819Z,100081.33
2022-09-06T07:24:42.775Z,100078.41
2022-09-06T07:25:45.392Z,100082.86
2022-09-06T07:27:52.602Z,100079.91
2022-09-06T07:28:55.483Z,100080.00
2022-09-06T07:29:58.088Z,100077.46
2022-09-06T07:31:01.480Z,100079.67
2022-09-06T07:32:11.553Z,100077.28
2022-09-06T07:33:08.686Z,100072.66
2022-09-06T07:34:11.292Z,100081.40
2022-09-06T07:35:13.998Z,100076.23
2022-09-06T07:36:17.209Z,100076.06
2022-09-06T07:37:19.801Z,100077.53
2022-09-06T07:38:22.371Z,100073.94
2022-09-06T07:39:24.950Z,100079.64
2022-09-06T07:40:28.567Z,100079.12
2022-09-06T07:41:31.548Z,100081.02
2022-09-06T07:42:36.226Z,100076.41
2022-09-06T07:43:38.624Z,100075.38
2022-09-06T07:44:41.157Z,100078.78
2022-09-06T07:45:43.858Z,100073.14
2022-09-06T07:46:47.136Z,100081.85
2022-09-06T07:47:57.109Z,100073.09
2022-09-06T07:48:54.554Z,100075.15
2022-09-06T07:51:01.874Z,100067.59
2022-09-06T07:53:11.311Z,100071.53
2022-09-06T07:54:29.749Z,100070.39
2022-09-06T07:55:17.721Z,100065.87
2022-09-06T07:56:20.647Z,100072.08
2022-09-06T07:57:23.255Z,100062.12
2022-09-06T07:58:25.859Z,100061.14
2022-09-06T07:59:28.517Z,100070.91
2022-09-06T08:00:31.272Z,100055.69
2022-09-06T08:01:33.934Z,100069.15
2022-09-06T08:02:36.537Z,100059.57
2022-09-06T08:03:39.127Z,100061.39
2022-09-06T08:04:41.736Z,100060.66
2022-09-06T08:08:58.622Z,100060.63
2022-09-06T08:10:02.047Z,100066.74
2022-09-06T08:11:04.921Z,100063.38
2022-09-06T08:12:07.673Z,100070.14
2022-09-06T08:13:10.369Z,100067.34
2022-09-06T08:14:13.035Z,100072.30
2022-09-06T08:15:15.696Z,100065.47
2022-09-06T08:16:19.653Z,100056.45
2022-09-06T08:17:22.597Z,100061.16
2022-09-06T08:18:25.348Z,100060.87
2022-09-06T08:19:27.912Z,100067.68
2022-09-06T08:20:30.884Z,100064.20
2022-09-06T08:21:33.853Z,100054.42
2022-09-06T08:22:36.493Z,100059.48
2022-09-06T08:23:39.104Z,100061.77
2022-09-06T08:24:41.725Z,100057.09
2022-09-06T08:25:44.260Z,100050.55
2022-09-06T08:26:47.208Z,100053.77
2022-09-06T08:27:49.801Z,100052.12
2022-09-06T08:28:52.429Z,100057.45
2022-09-06T08:29:55.220Z,100053.49
2022-09-06T08:30:57.896Z,100050.73
2022-09-06T08:32:00.592Z,100050.86
2022-09-06T08:33:03.223Z,100052.47
2022-09-06T08:34:05.819Z,100054.20
2022-09-06T08:35:08.466Z,100046.48
2022-09-06T08:36:11.900Z,100052.17
2022-09-06T08:37:15.029Z,100049.52
2022-09-06T08:38:17.700Z,100051.18
2022-09-06T08:39:20.267Z,100053.54
2022-09-06T08:40:24.083Z,100052.28
2022-09-06T08:41:26.691Z,100050.50
2022-09-06T08:42:29.400Z,100054.41
2022-09-06T08:43:32.068Z,100051.98
2022-09-06T08:45:39.208Z,100057.22
2022-09-06T08:46:42.888Z,100051.13
2022-09-06T08:47:45.820Z,100047.95
2022-09-06T08:48:48.853Z,100058.52
2022-09-06T08:49:51.465Z,100051.31
2022-09-06T08:50:54.749Z,100049.67
2022-09-06T08:51:57.416Z,100047.11
2022-09-06T08:53:16.066Z,100041.88
2022-09-06T08:54:04.763Z,100045.34
2022-09-06T08:55:07.783Z,100046.92
2022-09-06T08:56:12.088Z,100047.08
2022-09-06T08:57:14.662Z,100049.42
2022-09-06T08:58:17.326Z,100041.78
2022-09-06T08:59:20.117Z,100052.59
2022-09-06T09:00:24.103Z,100049.45
2022-09-06T09:01:26.972Z,100048.81
2022-09-06T09:02:29.996Z,100050.45
2022-09-06T09:03:32.875Z,100045.13
2022-09-06T09:04:35.493Z,100045.02
2022-09-06T09:05:38.164Z,100052.05
2022-09-06T09:06:41.239Z,100052.23
2022-09-06T09:07:44.211Z,100055.53
2022-09-06T09:08:46.837Z,100042.86
2022-09-06T09:09:49.480Z,100046.17
2022-09-06T09:10:52.523Z,100051.13
2022-09-06T09:11:55.104Z,100059.48
2022-09-06T09:12:57.793Z,100043.77
2022-09-06T09:14:00.399Z,100044.96
2022-09-06T09:15:02.996Z,100048.62
2022-09-06T09:16:05.704Z,100046.81
2022-09-06T09:17:08.552Z,100050.84
2022-09-06T09:18:11.207Z,100053.58
2022-09-06T09:19:13.784Z,100059.07
2022-09-06T09:20:17.164Z,100054.94
2022-09-06T09:21:20.135Z,100054.08
2022-09-06T09:22:22.765Z,100057.58
2022-09-06T09:23:25.436Z,100055.26
2022-09-06T09:24:28.010Z,100063.58
2022-09-06T09:25:30.645Z,100063.23
2022-09-06T09:26:33.800Z,100065.91
2022-09-06T09:27:36.459Z,100069.21
2022-09-06T09:28:38.985Z,100068.06
2022-09-06T09:29:41.631Z,100064.23
2022-09-06T09:31:48.778Z,100064.41
2022-09-06T09:32:51.443Z,100066.91
2022-09-06T09:33:54.011Z,100071.22
2022-09-06T09:34:56.581Z,100065.25
2022-09-06T09:35:59.145Z,100069.05
2022-09-06T09:38:09.510Z,100064.72
2022-09-06T09:39:11.045Z,100062.56
2022-09-06T09:40:14.668Z,100063.58
2022-09-06T09:41:17.514Z,100068.09
2022-09-06T09:42:20.269Z,100070.41
2022-09-06T09:43:22.857Z,100067.24
2022-09-06T09:44:25.517Z,100064.88
2022-09-06T09:45:28.183Z,100060.52
2022-09-06T09:46:32.242Z,100062.15
2022-09-06T09:47:35.159Z,100061.39
2022-09-06T09:48:37.728Z,100054.65
2022-09-06T09:49:40.606Z,100057.27
2022-09-06T09:50:43.475Z,100061.06
2022-09-06T09:51:46.079Z,100060.52
2022-09-06T09:52:48.714Z,100056.31
2022-09-06T09:53:51.339Z,100060.28
2022-09-06T09:54:53.951Z,100059.64
2022-09-06T09:55:56.631Z,100058.81
2022-09-06T09:56:59.900Z,100065.40
2022-09-06T09:58:02.570Z,100066.03
2022-09-06T09:59:05.135Z,100063.09
2022-09-06T10:00:08.424Z,100063.73
2022-09-06T10:01:11.439Z,100064.56
2022-09-06T10:02:14.376Z,100063.78
2022-09-06T10:03:17.079Z,100056.86
2022-09-06T10:05:24.236Z,100062.97
2022-09-06T10:07:32.020Z,100058.23
2022-09-06T10:08:34.795Z,100061.44
2022-09-06T10:09:37.461Z,100062.17
2022-09-06T10:10:40.359Z,100066.84
2022-09-06T10:11:43.002Z,100057.17
2022-09-06T10:12:45.673Z,100053.41
2022-09-06T10:13:48.343Z,100056.34
2022-09-06T10:14:51.011Z,100050.83
2022-09-06T10:15:54.150Z,100061.04
2022-09-06T10:16:57.338Z,100060.58
2022-09-06T10:17:59.938Z,100056.86
2022-09-06T10:19:02.511Z,100057.27
2022-09-06T10:20:05.550Z,100059.50
2022-09-06T10:21:08.155Z,100056.72
2022-09-06T10:22:10.823Z,100068.73
2022-09-06T10:23:13.451Z,100058.79
2022-09-06T10:25:20.574Z,100060.40
2022-09-06T10:26:24.979Z,100066.91
2022-09-06T10:27:27.549Z,100066.13
2022-09-06T10:28:30.257Z,100069.81
2022-09-06T10:29:32.988Z,100067.36
2022-09-06T10:30:35.925Z,100068.70
2022-09-06T10:31:38.594Z,100067.53
2022-09-06T10:32:41.571Z,100074.20
2022-09-06T10:33:44.283Z,100068.09
2022-09-06T10:34:46.909Z,100067.72
2022-09-06T10:35:49.514Z,100069.55
2022-09-06T10:36:52.601Z,100068.06
2022-09-06T10:37:55.429Z,100064.57
2022-09-06T10:39:02.969Z,100064.75
2022-09-06T10:40:03.864Z,100066.57
2022-09-06T10:41:06.613Z,100063.08
2022-09-06T10:42:09.691Z,100063.41
2022-09-06T10:43:12.315Z,100064.74
2022-09-06T10:44:14.962Z,100070.70
2022-09-06T10:45:17.597Z,100067.40
2022-09-06T10:46:20.961Z,100064.25
2022-09-06T10:47:23.893Z,100065.59
2022-09-06T10:48:26.720Z,100072.89
2022-09-06T10:49:29.538Z,100071.22
2022-09-06T10:50:32.527Z,100068.75
2022-09-06T10:51:35.082Z,100068.06
2022-09-06T10:52:37.651Z,100075.86
2022-09-06T10:53:40.214Z,100060.42
2022-09-06T10:54:42.890Z,100067.08
2022-09-06T10:55:47.978Z,100076.05
2022-09-06T10:56:50.272Z,100068.05
2022-09-06T11:00:01.824Z,100067.41
2022-09-06T11:01:04.446Z,100075.20
2022-09-06T11:02:07.475Z,100070.21
2022-09-06T11:04:15.204Z,100072.54
2022-09-06T11:06:25.444Z,100076.88
2022-09-06T11:07:27.723Z,100080.19
2022-09-06T11:09:34.690Z,100076.38
2022-09-06T11:10:37.667Z,100072.72
2022-09-06T11:11:40.191Z,100077.55
2022-09-06T11:12:43.007Z,100081.17
2022-09-06T11:13:46.038Z,100090.14
2022-09-06T11:14:48.559Z,100087.47
2022-09-06T11:15:51.163Z,100078.97
2022-09-06T11:16:54.300Z,100081.23
2022-09-06T11:17:56.866Z,100088.30
2022-09-06T11:18:59.352Z,100085.29
2022-09-06T11:20:02.202Z,100081.76
2022-09-06T11:21:04.774Z,100082.96
2022-09-06T11:22:07.647Z,100086.59
2022-09-06T11:23:10.321Z,100086.12
2022-09-06T11:24:13.290Z,100083.29
2022-09-06T11:25:15.858Z,100076.67
2022-09-06T11:26:19.266Z,100077.66
2022-09-06T11:27:21.901Z,100081.80
2022-09-06T11:28:24.484Z,100081.69
2022-09-06T11:29:27.106Z,100087.00
2022-09-06T11:30:30.083Z,100078.67
2022-09-06T11:32:37.111Z,100079.50
2022-09-06T11:33:40.194Z,100084.34
2022-09-06T11:34:43.088Z,100077.23
2022-09-06T11:35:45.651Z,100064.64
2022-09-06T11:36:48.703Z,100076.52
2022-09-06T11:37:51.469Z,100072.88
2022-09-06T11:38:53.994Z,100072.59
2022-09-06T11:41:01.228Z,100071.47
2022-09-06T11:42:04.091Z,100071.14
2022-09-06T11:43:06.822Z,100070.16
2022-09-06T11:44:09.536Z,100067.84
2022-09-06T11:45:12.203Z,100071.47
2022-09-06T11:46:19.980Z,100068.16
2022-09-06T11:47:20.850Z,100065.17
2022-09-06T11:48:23.493Z,100064.70
2022-09-06T11:49:26.159Z,100067.86
2022-09-06T11:50:28.927Z,100059.55
2022-09-06T11:51:31.494Z,100059.72
2022-09-06T11:52:34.072Z,100069.03
2022-09-06T11:53:36.584Z,100059.75
2022-09-06T11:54:39.207Z,100062.92
2022-09-06T11:55:41.865Z,100055.25
2022-09-06T11:56:44.900Z,100061.26
2022-09-06T11:57:47.511Z,100061.10
2022-09-06T11:58:50.185Z,100057.92
2022-09-06T11:59:52.846Z,100062.90
2022-09-06T12:00:55.928Z,100057.58
2022-09-06T12:01:58.599Z,100057.23
2022-09-06T12:04:07.339Z,100063.39
2022-09-06T12:05:10.599Z,100064.70
2022-09-06T12:06:14.088Z,100053.17
2022-09-06T12:07:16.656Z,100050.77
2022-09-06T12:08:19.229Z,100055.36
2022-09-06T12:09:21.888Z,100042.44
2022-09-06T12:10:25.178Z,100045.89
2022-09-06T12:11:30.303Z,100046.42
2022-09-06T12:12:32.665Z,100050.92
2022-09-06T12:13:35.228Z,100045.93
2022-09-06T12:14:37.999Z,100047.42
2022-09-06T12:15:40.564Z,100037.76
2022-09-06T12:16:43.401Z,100041.72
2022-09-06T12:17:46.015Z,100037.47
2022-09-06T12:18:48.574Z,100047.52
2022-09-06T12:19:51.344Z,100042.43
2022-09-06T12:20:54.321Z,100039.91
2022-09-06T12:21:57.303Z,100031.91
2022-09-06T12:22:59.865Z,100040.52
2022-09-06T12:24:02.435Z,100039.36
2022-09-06T12:25:05.000Z,100045.70
2022-09-06T12:26:08.285Z,100039.88
2022-09-06T12:27:11.574Z,100046.78
2022-09-06T12:28:14.238Z,100040.37